Time;durP1;ratioP1;P1;durP2;ratioP2;P2;SDS_P1;SDS_P2;PMS_P1;PMS_P2;Temp;Humidity;BMP_temperature;BMP_pressure;BME280_temperature;BME280_humidity;BME280_pressure;Samples;Min_cycle;Max_cycle;Signal;HPM_P1;HPM_P2
2023/07/30 00:02:16;;;;;;;1.77;1.50;;;20.00;99.90;;;;;;5031701;28;20021;-42
2023/07/30 00:04:42;;;;;;;1.95;1.33;;;20.00;99.90;;;;;;5031040;28;20021;-42
2023/07/30 00:07:07;;;;;;;2.00;1.50;;;20.00;99.90;;;;;;5031149;28;20025;-41
2023/07/30 00:09:33;;;;;;;2.47;1.60;;;20.00;99.90;;;;;;5013038;28;20700;-39
2023/07/30 00:11:58;;;;;;;2.45;1.67;;;20.00;99.90;;;;;;5031233;28;20037;-41
2023/07/30 00:14:24;;;;;;;1.60;1.40;;;20.00;99.90;;;;;;5031100;28;20083;-41
2023/07/30 00:16:49;;;;;;;2.60;1.60;;;20.00;99.90;;;;;;5031027;28;20564;-42
2023/07/30 00:19:15;;;;;;;2.63;1.90;;;20.00;99.90;;;;;;5030488;28;20030;-42
2023/07/30 00:21:43;;;;;;;3.15;1.63;;;20.00;99.90;;;;;;5013232;28;20021;-42
2023/07/30 00:24:09;;;;;;;2.78;1.40;;;20.00;99.90;;;;;;5031543;28;20477;-44
2023/07/30 00:26:34;;;;;;;1.92;1.65;;;20.00;99.90;;;;;;5031434;28;20152;-41
2023/07/30 00:29:00;;;;;;;3.88;1.40;;;20.00;99.90;;;;;;5030858;28;20026;-39
2023/07/30 00:31:25;;;;;;;2.30;1.67;;;20.00;99.90;;;;;;5031175;28;20045;-41
2023/07/30 00:33:51;;;;;;;3.47;1.52;;;20.00;99.90;;;;;;5030852;28;20021;-42
2023/07/30 00:36:17;;;;;;;2.05;1.58;;;20.00;99.90;;;;;;5030909;28;20021;-42
2023/07/30 00:38:42;;;;;;;2.50;1.40;;;20.00;99.90;;;;;;5030776;28;20544;-41
2023/07/30 00:41:08;;;;;;;2.17;1.50;;;20.00;99.90;;;;;;5030739;28;20026;-41
2023/07/30 00:43:33;;;;;;;1.85;1.35;;;20.00;99.90;;;;;;5013198;28;20546;-41
2023/07/30 00:45:59;;;;;;;1.80;1.52;;;20.00;99.90;;;;;;5030910;28;20049;-42
2023/07/30 00:48:25;;;;;;;1.95;1.55;;;20.00;99.90;;;;;;5030907;28;20029;-41
2023/07/30 00:50:50;;;;;;;2.15;1.60;;;20.00;99.90;;;;;;5030691;28;20095;-44
2023/07/30 00:53:17;;;;;;;1.75;1.65;;;20.00;99.90;;;;;;5030822;28;20029;-40
2023/07/30 00:55:43;;;;;;;2.55;1.65;;;20.00;99.90;;;;;;5030895;28;20096;-40
2023/07/30 00:58:10;;;;;;;1.98;1.67;;;20.00;99.90;;;;;;5031105;28;20115;-44
2023/07/30 01:00:36;;;;;;;1.92;1.63;;;20.00;99.90;;;;;;5031184;28;20029;-44
2023/07/30 01:03:01;;;;;;;2.20;1.63;;;20.00;99.90;;;;;;5034400;28;20276;-42
2023/07/30 01:05:27;;;;;;;1.90;1.50;;;20.00;99.90;;;;;;5034363;28;20052;-42
2023/07/30 01:07:52;;;;;;;1.83;1.60;;;20.00;99.90;;;;;;5034303;28;20469;-43
2023/07/30 01:10:19;;;;;;;1.90;1.60;;;20.00;99.90;;;;;;5034098;28;20030;-42
2023/07/30 01:12:46;;;;;;;2.10;1.70;;;20.00;99.90;;;;;;5034227;28;20551;-41
2023/07/30 01:15:12;;;;;;;1.70;1.60;;;20.00;99.90;;;;;;5034234;28;20033;-42
2023/07/30 01:17:37;;;;;;;2.10;1.55;;;20.00;99.90;;;;;;5033974;28;20064;-44
2023/07/30 01:20:04;;;;;;;2.28;1.30;;;20.00;99.90;;;;;;5034214;28;20022;-41
2023/07/30 01:22:29;;;;;;;1.70;1.55;;;20.00;99.90;;;;;;5035460;28;20048;-41
2023/07/30 01:24:55;;;;;;;2.10;1.63;;;20.00;99.90;;;;;;5034040;28;20112;-41
2023/07/30 01:27:27;;;;;;;1.90;1.60;;;20.00;99.90;;;;;;5034029;28;20374;-42
2023/07/30 01:30:00;;;;;;;4.20;1.77;;;20.00;99.90;;;;;;5033602;28;20029;-40
2023/07/30 01:32:28;;;;;;;1.98;1.60;;;20.00;99.90;;;;;;5033990;28;20384;-42
2023/07/30 01:34:56;;;;;;;3.70;1.50;;;20.00;99.90;;;;;;5034014;28;20033;-41
2023/07/30 01:37:22;;;;;;;1.77;1.40;;;20.00;99.90;;;;;;5033852;28;20029;-40
2023/07/30 01:39:51;;;;;;;2.28;1.60;;;20.00;99.90;;;;;;5033455;28;20385;-41
2023/07/30 01:42:17;;;;;;;2.80;1.70;;;20.00;99.90;;;;;;5033760;28;20132;-44
2023/07/30 01:44:43;;;;;;;1.77;1.45;;;20.00;99.90;;;;;;5033635;28;20022;-42
2023/07/30 01:47:08;;;;;;;1.60;1.35;;;20.00;99.90;;;;;;5033898;28;20014;-45
2023/07/30 01:49:34;;;;;;;1.98;1.38;;;20.00;99.90;;;;;;5033273;28;20095;-42
2023/07/30 01:52:00;;;;;;;2.30;1.58;;;20.00;99.90;;;;;;5016146;28;20400;-41
2023/07/30 01:54:25;;;;;;;1.63;1.48;;;20.00;99.90;;;;;;5033520;28;20056;-42
2023/07/30 01:56:51;;;;;;;1.65;1.50;;;20.00;99.90;;;;;;5033602;28;20035;-41
2023/07/30 01:59:17;;;;;;;2.05;1.52;;;20.00;99.90;;;;;;5032945;28;20029;-42
2023/07/30 02:01:43;;;;;;;2.35;1.60;;;20.00;99.90;;;;;;5033387;28;20078;-41
2023/07/30 02:04:09;;;;;;;1.95;1.60;;;20.00;99.90;;;;;;5033300;28;20504;-39
2023/07/30 02:06:35;;;;;;;1.60;1.50;;;20.00;99.90;;;;;;5033334;28;20034;-40
2023/07/30 02:09:00;;;;;;;1.55;1.42;;;20.00;99.90;;;;;;5033007;28;20093;-41
2023/07/30 02:11:26;;;;;;;2.55;1.70;;;20.00;99.90;;;;;;5032792;28;20021;-41
2023/07/30 02:13:52;;;;;;;2.40;1.52;;;20.00;99.90;;;;;;5033049;28;20021;-42
2023/07/30 02:16:17;;;;;;;1.30;1.20;;;20.00;99.90;;;;;;5033148;28;20052;-43
2023/07/30 02:18:44;;;;;;;2.53;1.58;;;19.90;99.90;;;;;;5032665;28;20030;-42
2023/07/30 02:21:10;;;;;;;1.60;1.35;;;19.90;99.90;;;;;;5032882;28;20036;-41
2023/07/30 02:23:35;;;;;;;1.65;1.50;;;20.00;99.90;;;;;;5033336;28;20021;-42
2023/07/30 02:26:01;;;;;;;2.40;1.40;;;19.90;99.90;;;;;;5032914;28;20106;-41
2023/07/30 02:28:26;;;;;;;1.70;1.40;;;20.00;99.90;;;;;;5032695;28;20029;-42
2023/07/30 02:30:52;;;;;;;2.13;1.52;;;19.90;99.90;;;;;;5032686;28;20365;-41
2023/07/30 02:33:17;;;;;;;1.88;1.45;;;20.00;99.90;;;;;;5032726;28;20025;-41
2023/07/30 02:35:44;;;;;;;2.80;1.50;;;19.90;99.90;;;;;;5032764;28;20033;-41
2023/07/30 02:38:09;;;;;;;1.98;1.65;;;19.90;99.90;;;;;;5032639;28;20037;-39
2023/07/30 02:40:35;;;;;;;1.88;1.58;;;19.90;99.90;;;;;;5032442;28;20037;-40
2023/07/30 02:43:01;;;;;;;1.48;1.33;;;19.90;99.90;;;;;;5032549;28;20029;-42
2023/07/30 02:45:26;;;;;;;1.30;1.20;;;19.90;99.90;;;;;;5032530;28;20072;-41
2023/07/30 02:47:52;;;;;;;3.03;1.67;;;19.90;99.90;;;;;;5032660;28;20079;-40
2023/07/30 02:50:18;;;;;;;2.10;1.40;;;20.00;99.90;;;;;;5032506;28;20171;-40
2023/07/30 02:52:43;;;;;;;1.55;1.33;;;19.90;99.90;;;;;;5032431;28;20033;-40
2023/07/30 02:55:09;;;;;;;1.52;1.27;;;19.90;99.90;;;;;;5032392;28;20032;-42
2023/07/30 02:57:35;;;;;;;1.98;1.30;;;19.90;99.90;;;;;;5032272;28;20076;-42
2023/07/30 03:00:01;;;;;;;1.42;1.20;;;19.90;99.90;;;;;;5031965;28;20053;-39
2023/07/30 03:02:27;;;;;;;1.85;1.45;;;19.90;99.90;;;;;;5032222;28;20037;-42
2023/07/30 03:04:52;;;;;;;1.65;1.40;;;19.90;99.90;;;;;;5032258;28;20029;-41
2023/07/30 03:07:19;;;;;;;1.63;1.40;;;19.90;99.90;;;;;;5032176;28;20071;-42
2023/07/30 03:09:45;;;;;;;1.50;1.40;;;19.90;99.90;;;;;;5031819;28;20032;-41
2023/07/30 03:12:11;;;;;;;2.50;1.40;;;19.90;99.90;;;;;;5031983;28;20112;-41
2023/07/30 03:14:36;;;;;;;1.42;1.10;;;19.90;99.90;;;;;;5032013;28;20032;-41
2023/07/30 03:17:02;;;;;;;2.13;1.70;;;19.90;99.90;;;;;;5031910;28;20033;-42
2023/07/30 03:19:27;;;;;;;1.40;1.27;;;19.90;99.90;;;;;;5031468;28;20092;-40
2023/07/30 03:21:53;;;;;;;1.40;1.30;;;19.90;99.90;;;;;;5031905;28;20083;-39
2023/07/30 03:24:19;;;;;;;1.52;1.27;;;19.90;99.90;;;;;;5031138;28;20381;-45
2023/07/30 03:26:44;;;;;;;2.00;1.45;;;19.90;99.90;;;;;;5031703;28;20131;-41
2023/07/30 03:29:10;;;;;;;2.65;1.33;;;19.90;99.90;;;;;;5031599;28;20481;-41
2023/07/30 03:31:35;;;;;;;1.60;1.50;;;19.90;99.90;;;;;;5031736;28;20044;-43
2023/07/30 03:34:01;;;;;;;1.65;1.30;;;19.90;99.90;;;;;;5031621;28;20017;-41
2023/07/30 03:36:26;;;;;;;1.42;1.23;;;19.90;99.90;;;;;;5031627;28;20033;-43
2023/07/30 03:38:52;;;;;;;1.35;1.10;;;19.90;99.90;;;;;;5031349;28;20029;-41
2023/07/30 03:41:18;;;;;;;2.42;1.38;;;19.90;99.90;;;;;;5031297;28;20021;-41
2023/07/30 03:43:43;;;;;;;1.95;1.38;;;19.90;99.90;;;;;;5031506;28;20067;-44
2023/07/30 03:46:09;;;;;;;2.08;1.40;;;19.90;99.90;;;;;;5031696;28;20113;-41
2023/07/30 03:48:34;;;;;;;1.73;1.10;;;19.90;99.90;;;;;;5031377;28;20025;-42
2023/07/30 03:51:00;;;;;;;2.42;1.33;;;19.90;99.90;;;;;;5031182;28;20044;-42
2023/07/30 03:53:26;;;;;;;2.25;1.17;;;19.90;99.90;;;;;;5031386;28;20087;-39
2023/07/30 03:55:51;;;;;;;1.55;1.20;;;19.90;99.90;;;;;;5031254;28;20025;-41
2023/07/30 03:58:17;;;;;;;1.65;1.20;;;19.90;99.90;;;;;;5031243;28;20428;-41
2023/07/30 04:00:42;;;;;;;1.55;1.38;;;19.90;99.90;;;;;;5030961;28;20385;-43
2023/07/30 04:03:08;;;;;;;2.70;1.58;;;19.90;99.90;;;;;;5031509;28;20028;-40
2023/07/30 04:05:34;;;;;;;1.48;1.30;;;19.90;99.90;;;;;;5031267;28;20469;-41
2023/07/30 04:08:00;;;;;;;1.98;1.17;;;19.90;99.90;;;;;;5031185;28;20060;-44
2023/07/30 04:10:25;;;;;;;1.67;1.23;;;19.90;99.90;;;;;;5030949;28;20029;-41
2023/07/30 04:12:51;;;;;;;1.15;1.05;;;19.90;99.90;;;;;;5031227;28;20068;-41
2023/07/30 04:15:17;;;;;;;1.40;1.17;;;19.90;99.90;;;;;;5031118;28;20485;-42
2023/07/30 04:17:42;;;;;;;2.92;1.33;;;19.90;99.90;;;;;;5030913;28;20029;-42
2023/07/30 04:20:12;;;;;;;2.28;1.33;;;19.90;99.90;;;;;;5030853;28;20053;-42
2023/07/30 04:22:37;;;;;;;1.20;1.10;;;19.90;99.90;;;;;;5031081;28;20025;-42
2023/07/30 04:25:03;;;;;;;1.67;1.33;;;19.90;99.90;;;;;;5030935;28;20021;-43
2023/07/30 04:27:30;;;;;;;2.22;1.45;;;19.90;99.90;;;;;;5030955;28;20397;-44
2023/07/30 04:29:56;;;;;;;1.73;1.25;;;19.90;99.90;;;;;;5030728;28;20035;-40
2023/07/30 04:32:21;;;;;;;1.75;1.20;;;19.90;99.90;;;;;;5031327;28;20030;-41
2023/07/30 04:34:47;;;;;;;1.65;1.20;;;19.90;99.90;;;;;;5032207;28;20488;-42
2023/07/30 04:37:13;;;;;;;1.85;1.13;;;19.90;99.90;;;;;;5034999;28;20064;-42
2023/07/30 04:39:38;;;;;;;1.63;1.10;;;19.90;99.90;;;;;;5034465;28;20057;-41
2023/07/30 04:42:04;;;;;;;2.70;1.38;;;19.90;99.90;;;;;;5017661;28;20474;-40
2023/07/30 04:44:30;;;;;;;1.63;1.30;;;19.80;99.90;;;;;;5034781;28;20026;-41
2023/07/30 04:46:56;;;;;;;1.45;1.13;;;19.80;99.90;;;;;;5034940;28;20105;-43
2023/07/30 04:49:21;;;;;;;1.20;1.10;;;19.90;99.90;;;;;;5034458;28;20026;-40
2023/07/30 04:51:47;;;;;;;1.95;1.10;;;19.90;99.90;;;;;;5034752;28;20041;-40
2023/07/30 04:54:12;;;;;;;2.13;1.33;;;19.90;99.90;;;;;;5034575;28;20037;-42
2023/07/30 04:56:38;;;;;;;1.83;1.17;;;19.90;99.90;;;;;;5034599;28;20053;-44
2023/07/30 04:59:04;;;;;;;2.50;1.30;;;19.90;99.90;;;;;;5034180;28;20037;-42
2023/07/30 05:01:31;;;;;;;1.42;1.10;;;19.90;99.90;;;;;;5034586;28;20037;-41
2023/07/30 05:03:56;;;;;;;1.80;1.40;;;19.90;99.90;;;;;;5034442;28;20022;-41
2023/07/30 05:06:23;;;;;;;1.38;1.13;;;19.90;99.90;;;;;;5034447;28;20025;-43
2023/07/30 05:08:48;;;;;;;1.63;1.02;;;19.90;99.90;;;;;;5016337;28;20114;-41
2023/07/30 05:11:14;;;;;;;1.75;1.10;;;19.90;99.90;;;;;;5034293;28;20112;-42
2023/07/30 05:13:40;;;;;;;1.73;1.15;;;19.90;99.90;;;;;;5034273;28;20087;-41
2023/07/30 05:16:06;;;;;;;1.52;1.13;;;19.90;99.90;;;;;;5034301;28;20025;-40
2023/07/30 05:18:31;;;;;;;2.05;1.15;;;19.90;99.90;;;;;;5034093;28;20476;-43
2023/07/30 05:20:57;;;;;;;1.80;1.20;;;19.90;99.90;;;;;;5033915;28;20116;-41
2023/07/30 05:23:22;;;;;;;1.77;1.30;;;19.90;99.90;;;;;;5034065;28;20022;-42
2023/07/30 05:25:48;;;;;;;1.67;1.10;;;19.80;99.90;;;;;;5034279;28;20472;-42
2023/07/30 05:28:14;;;;;;;1.60;1.30;;;19.90;99.90;;;;;;5033995;28;20057;-42
2023/07/30 05:30:39;;;;;;;1.83;1.10;;;19.90;99.90;;;;;;5033745;28;20389;-41
2023/07/30 05:33:05;;;;;;;1.67;1.00;;;19.80;99.90;;;;;;5034459;28;20033;-43
2023/07/30 05:35:30;;;;;;;1.08;0.98;;;19.80;99.90;;;;;;5033960;28;20056;-41
2023/07/30 05:37:56;;;;;;;1.30;1.20;;;19.90;99.90;;;;;;5033702;28;20096;-41
2023/07/30 05:40:22;;;;;;;1.98;1.30;;;19.90;99.90;;;;;;5033735;28;20037;-41
2023/07/30 05:42:48;;;;;;;1.17;1.00;;;19.90;99.90;;;;;;5033733;28;20101;-41
2023/07/30 05:45:13;;;;;;;1.40;1.10;;;19.90;99.90;;;;;;5033730;28;20104;-42
2023/07/30 05:47:39;;;;;;;1.55;1.00;;;19.80;99.90;;;;;;5032863;28;20021;-42
2023/07/30 05:50:07;;;;;;;1.40;1.10;;;19.90;99.90;;;;;;5033442;28;20026;-41
2023/07/30 05:52:33;;;;;;;1.42;1.20;;;19.90;99.90;;;;;;5033523;28;20103;-41
2023/07/30 05:54:59;;;;;;;2.53;1.17;;;19.90;99.90;;;;;;5033722;28;20064;-40
2023/07/30 05:57:24;;;;;;;1.27;1.02;;;19.90;99.90;;;;;;5033507;28;20029;-41
2023/07/30 05:59:50;;;;;;;1.00;0.90;;;19.80;99.90;;;;;;5033064;28;20025;-41
2023/07/30 06:02:16;;;;;;;3.33;1.10;;;19.90;99.90;;;;;;5015636;28;20017;-44
2023/07/30 06:04:42;;;;;;;1.38;1.08;;;19.90;99.90;;;;;;5033441;28;20025;-42
2023/07/30 06:07:07;;;;;;;1.50;1.05;;;19.80;99.90;;;;;;5033308;28;20036;-40
2023/07/30 06:09:33;;;;;;;1.10;1.00;;;19.80;99.90;;;;;;5032967;28;20022;-40
2023/07/30 06:11:58;;;;;;;1.50;1.10;;;19.80;99.90;;;;;;5033286;28;20030;-41
2023/07/30 06:14:25;;;;;;;1.30;0.90;;;19.80;99.90;;;;;;5033174;28;20121;-41
2023/07/30 06:16:51;;;;;;;1.20;0.90;;;19.90;99.90;;;;;;5033157;28;20034;-42
2023/07/30 06:19:17;;;;;;;1.83;0.90;;;19.80;99.90;;;;;;5032693;28;20087;-42
2023/07/30 06:21:42;;;;;;;1.30;1.10;;;19.90;99.90;;;;;;5033028;28;20033;-41
2023/07/30 06:24:08;;;;;;;1.13;1.00;;;19.90;99.90;;;;;;5033029;28;20554;-41
2023/07/30 06:26:34;;;;;;;1.88;1.02;;;19.90;99.90;;;;;;5033009;28;20017;-41
2023/07/30 06:28:59;;;;;;;1.20;1.10;;;19.90;99.90;;;;;;5014846;28;20484;-42
2023/07/30 06:31:25;;;;;;;1.00;0.80;;;19.80;99.90;;;;;;5032964;28;20104;-41
2023/07/30 06:33:50;;;;;;;1.10;0.80;;;19.90;99.90;;;;;;5032907;28;20029;-41
2023/07/30 06:36:16;;;;;;;1.50;1.20;;;19.90;99.90;;;;;;5032739;28;20028;-41
2023/07/30 06:38:42;;;;;;;2.22;0.90;;;19.90;99.90;;;;;;5032578;28;20037;-44
2023/07/30 06:41:07;;;;;;;1.38;1.08;;;19.90;99.90;;;;;;5014735;28;20071;-44
2023/07/30 06:43:33;;;;;;;1.08;0.90;;;19.90;99.90;;;;;;5032599;28;20021;-41
2023/07/30 06:45:58;;;;;;;1.10;1.00;;;19.90;99.90;;;;;;5032605;28;20156;-42
2023/07/30 06:48:24;;;;;;;1.10;1.00;;;19.90;99.90;;;;;;5032497;28;20546;-43
2023/07/30 06:50:50;;;;;;;2.65;1.00;;;19.90;99.90;;;;;;5032167;28;20504;-41
2023/07/30 06:53:15;;;;;;;1.50;1.00;;;19.90;99.90;;;;;;5032536;28;20393;-40
2023/07/30 06:55:41;;;;;;;1.02;0.80;;;19.90;99.90;;;;;;5032613;28;20481;-40
2023/07/30 06:58:07;;;;;;;0.90;0.77;;;19.90;99.90;;;;;;5031231;28;20100;-41
2023/07/30 07:00:32;;;;;;;1.00;0.90;;;19.90;99.90;;;;;;5032107;28;20116;-39
2023/07/30 07:02:58;;;;;;;1.15;1.00;;;19.90;99.90;;;;;;5032675;28;20021;-41
2023/07/30 07:05:24;;;;;;;1.60;1.15;;;19.90;99.90;;;;;;5032159;28;20417;-42
2023/07/30 07:07:49;;;;;;;1.20;0.90;;;19.90;99.90;;;;;;5032386;28;20104;-41
2023/07/30 07:10:15;;;;;;;1.33;0.93;;;19.90;99.90;;;;;;5031896;28;20033;-41
2023/07/30 07:12:41;;;;;;;0.80;0.80;;;19.90;99.90;;;;;;5032041;28;20421;-41
2023/07/30 07:15:07;;;;;;;1.38;0.80;;;19.90;99.90;;;;;;5032113;28;20030;-41
2023/07/30 07:17:32;;;;;;;1.23;0.80;;;19.90;99.90;;;;;;5032450;28;20027;-42
2023/07/30 07:19:59;;;;;;;1.30;0.95;;;19.90;99.90;;;;;;5031856;28;20037;-39
2023/07/30 07:22:24;;;;;;;1.45;1.00;;;19.90;99.90;;;;;;5032469;28;20021;-42
2023/07/30 07:24:53;;;;;;;1.00;0.80;;;19.90;99.90;;;;;;5031920;28;20023;-41
2023/07/30 07:27:19;;;;;;;0.90;0.85;;;19.90;99.90;;;;;;5031757;28;20033;-40
2023/07/30 07:29:45;;;;;;;0.93;0.77;;;19.90;99.90;;;;;;5031542;28;20064;-39
2023/07/30 07:32:10;;;;;;;1.00;0.90;;;19.90;99.90;;;;;;5031804;28;20053;-41
2023/07/30 07:34:36;;;;;;;1.20;1.00;;;19.90;99.90;;;;;;5031585;28;20460;-42
2023/07/30 07:37:02;;;;;;;1.00;0.90;;;19.90;99.90;;;;;;5031780;28;20037;-39
2023/07/30 07:39:28;;;;;;;1.30;0.88;;;19.90;99.90;;;;;;5031269;28;20378;-42
2023/07/30 07:41:55;;;;;;;1.05;0.90;;;19.90;99.90;;;;;;5031642;28;20021;-41
2023/07/30 07:44:21;;;;;;;1.10;0.90;;;19.90;99.90;;;;;;5031602;28;20477;-42
2023/07/30 07:46:47;;;;;;;0.80;0.75;;;19.90;99.90;;;;;;5031513;28;20022;-41
2023/07/30 07:49:12;;;;;;;1.40;1.00;;;19.90;99.90;;;;;;5031119;28;20374;-43
2023/07/30 07:51:38;;;;;;;1.30;0.95;;;19.90;99.90;;;;;;5031489;28;20021;-39
2023/07/30 07:54:04;;;;;;;0.80;0.70;;;19.90;99.90;;;;;;5031412;28;20032;-41
2023/07/30 07:56:31;;;;;;;0.80;0.80;;;19.90;99.90;;;;;;5031334;28;20036;-42
2023/07/30 07:58:57;;;;;;;1.38;1.05;;;19.90;99.90;;;;;;5031157;28;20148;-43
2023/07/30 08:01:22;;;;;;;1.05;0.85;;;19.90;99.90;;;;;;5031186;28;20381;-40
2023/07/30 08:03:48;;;;;;;1.45;0.90;;;19.90;99.90;;;;;;5031165;28;20037;-40
2023/07/30 08:06:14;;;;;;;1.17;1.05;;;19.90;99.90;;;;;;5031245;28;20026;-42
2023/07/30 08:08:39;;;;;;;1.13;0.80;;;19.90;99.90;;;;;;5031167;28;20025;-41
2023/07/30 08:11:07;;;;;;;1.00;0.90;;;19.90;99.90;;;;;;5030633;28;20060;-39
2023/07/30 08:13:33;;;;;;;1.10;0.90;;;19.90;99.90;;;;;;5031205;28;20025;-40
2023/07/30 08:15:58;;;;;;;1.48;0.90;;;19.90;99.90;;;;;;5031308;28;20025;-43
2023/07/30 08:18:24;;;;;;;1.63;0.93;;;19.90;99.90;;;;;;5013050;28;20041;-42
2023/07/30 08:20:50;;;;;;;0.70;0.70;;;19.90;99.90;;;;;;5030981;28;20057;-40
2023/07/30 08:23:15;;;;;;;1.40;0.93;;;19.90;99.90;;;;;;5031113;28;20083;-44
2023/07/30 08:25:41;;;;;;;1.17;0.70;;;19.90;99.90;;;;;;5031081;28;20029;-41
2023/07/30 08:28:07;;;;;;;1.45;0.90;;;19.90;99.90;;;;;;5030949;28;20029;-40
2023/07/30 08:30:32;;;;;;;0.75;0.70;;;19.90;99.90;;;;;;5030834;28;20037;-41
2023/07/30 08:32:58;;;;;;;1.00;0.82;;;19.90;99.90;;;;;;5030931;28;20026;-42
2023/07/30 08:35:24;;;;;;;1.20;0.90;;;20.00;99.90;;;;;;5031193;28;20030;-41
2023/07/30 08:37:49;;;;;;;1.45;0.80;;;19.90;99.90;;;;;;5031133;28;20049;-42
2023/07/30 08:40:15;;;;;;;0.98;0.80;;;19.90;99.90;;;;;;5030601;28;20029;-41
2023/07/30 08:42:41;;;;;;;1.50;1.00;;;19.90;99.90;;;;;;5030934;28;20116;-41
2023/07/30 08:45:10;;;;;;;0.98;0.80;;;19.90;99.90;;;;;;5030925;28;20492;-39
2023/07/30 08:47:37;;;;;;;1.00;0.90;;;19.90;99.90;;;;;;5030764;28;20396;-42
2023/07/30 08:50:03;;;;;;;1.30;1.00;;;19.90;99.90;;;;;;5030649;28;20388;-44
2023/07/30 08:52:29;;;;;;;0.90;0.80;;;20.00;99.90;;;;;;5030822;28;20101;-42
2023/07/30 08:54:56;;;;;;;1.38;0.90;;;19.90;99.90;;;;;;5030770;28;20103;-41
2023/07/30 08:57:23;;;;;;;1.13;0.90;;;19.90;99.90;;;;;;5030970;28;20029;-41
2023/07/30 09:00:04;;;;;;;1.27;0.88;;;20.00;99.90;;;;;;5030548;28;20029;-41
2023/07/30 09:02:41;;;;;;;1.08;0.98;;;20.00;99.90;;;;;;5030830;28;20024;-43
2023/07/30 09:05:07;;;;;;;0.82;0.70;;;19.90;99.90;;;;;;5030789;28;20037;-42
2023/07/30 09:07:33;;;;;;;1.00;0.90;;;19.90;99.90;;;;;;5030736;28;20029;-44
2023/07/30 09:09:59;;;;;;;1.23;0.80;;;20.00;99.90;;;;;;5030353;28;20030;-41
2023/07/30 09:12:31;;;;;;;1.05;0.82;;;19.90;99.90;;;;;;5030625;28;20060;-42
2023/07/30 09:14:57;;;;;;;1.15;0.80;;;20.00;99.90;;;;;;5030678;28;20033;-42
2023/07/30 09:17:23;;;;;;;0.90;0.80;;;19.90;99.90;;;;;;5031002;28;20029;-42
2023/07/30 09:19:52;;;;;;;1.00;0.80;;;20.00;99.90;;;;;;5012438;28;20036;-41
2023/07/30 09:22:24;;;;;;;1.00;0.80;;;20.00;99.90;;;;;;5032390;28;20034;-41
2023/07/30 09:24:50;;;;;;;0.93;0.82;;;19.90;99.90;;;;;;5034068;28;20018;-42
2023/07/30 09:27:25;;;;;;;1.08;0.77;;;20.00;99.90;;;;;;5034054;28;20567;-41
2023/07/30 09:29:52;;;;;;;0.90;0.80;;;19.90;99.90;;;;;;5033895;28;20033;-39
2023/07/30 09:32:18;;;;;;;1.02;0.80;;;19.90;99.90;;;;;;5034094;28;20034;-40
2023/07/30 09:34:45;;;;;;;1.13;0.75;;;19.90;99.90;;;;;;5033911;28;20499;-42
2023/07/30 09:37:10;;;;;;;1.00;0.80;;;19.90;99.90;;;;;;5033947;28;20087;-41
2023/07/30 09:39:37;;;;;;;1.45;0.85;;;19.90;99.90;;;;;;5033363;28;20029;-40
2023/07/30 09:42:03;;;;;;;1.05;0.90;;;19.90;99.90;;;;;;5033856;28;20025;-40
2023/07/30 09:44:33;;;;;;;1.08;0.98;;;19.90;99.90;;;;;;5033841;28;20448;-44
2023/07/30 09:46:58;;;;;;;1.10;0.80;;;19.90;99.90;;;;;;5034222;28;20017;-42
2023/07/30 09:49:24;;;;;;;1.00;0.85;;;19.90;99.90;;;;;;5033399;28;20116;-44
2023/07/30 09:51:51;;;;;;;0.70;0.60;;;19.90;99.90;;;;;;5033658;28;20079;-42
2023/07/30 09:54:17;;;;;;;0.80;0.70;;;20.00;99.90;;;;;;5033436;28;20497;-40
2023/07/30 09:56:43;;;;;;;1.00;0.90;;;19.90;99.90;;;;;;5033559;28;20025;-41
2023/07/30 09:59:09;;;;;;;1.10;0.93;;;20.00;99.90;;;;;;5033253;28;20061;-41
2023/07/30 10:01:49;;;;;;;0.75;0.70;;;19.90;99.90;;;;;;5033496;28;20033;-41
2023/07/30 10:04:18;;;;;;;1.10;0.70;;;20.00;99.90;;;;;;5033466;28;20102;-41
2023/07/30 10:06:54;;;;;;;1.65;1.00;;;20.00;99.90;;;;;;5033327;28;20026;-40
2023/07/30 10:09:23;;;;;;;1.20;0.90;;;20.00;99.90;;;;;;5033542;28;20017;-40
2023/07/30 10:11:50;;;;;;;1.15;0.90;;;20.00;99.90;;;;;;5033320;28;20021;-41
2023/07/30 10:14:19;;;;;;;2.00;1.00;;;20.00;99.90;;;;;;5033328;28;20029;-41
2023/07/30 10:16:53;;;;;;;1.10;0.93;;;20.00;99.90;;;;;;5033274;28;20018;-41
2023/07/30 10:19:23;;;;;;;1.13;0.90;;;20.00;99.90;;;;;;5032603;28;20128;-40
2023/07/30 10:21:48;;;;;;;1.00;0.90;;;20.00;99.90;;;;;;5033030;28;20017;-42
2023/07/30 10:24:14;;;;;;;1.27;1.10;;;20.00;99.90;;;;;;5033051;28;20496;-40
2023/07/30 10:26:40;;;;;;;1.05;0.90;;;20.10;99.90;;;;;;5033035;28;20029;-40
2023/07/30 10:29:19;;;;;;;2.15;1.08;;;20.00;99.90;;;;;;5032661;28;20014;-41
2023/07/30 10:31:55;;;;;;;1.88;0.90;;;20.00;99.90;;;;;;5032843;28;20066;-42
2023/07/30 10:34:25;;;;;;;0.98;0.82;;;20.00;99.90;;;;;;5032607;28;20029;-41
2023/07/30 10:36:55;;;;;;;1.00;0.90;;;20.10;99.90;;;;;;5032955;28;20485;-44
2023/07/30 10:39:30;;;;;;;0.82;0.80;;;20.10;99.90;;;;;;5032369;28;20440;-43
2023/07/30 10:41:57;;;;;;;1.20;0.90;;;20.10;99.90;;;;;;5032742;28;20018;-43
2023/07/30 10:44:24;;;;;;;0.90;0.80;;;20.10;99.90;;;;;;5032575;28;20429;-44
2023/07/30 10:46:51;;;;;;;1.45;0.98;;;20.10;99.90;;;;;;5014873;28;20022;-43
2023/07/30 10:49:16;;;;;;;1.02;0.80;;;20.10;99.90;;;;;;5033016;28;20389;-42
2023/07/30 10:51:42;;;;;;;1.10;0.90;;;20.10;99.90;;;;;;5032519;28;20022;-43
2023/07/30 10:54:10;;;;;;;1.33;0.90;;;20.10;99.90;;;;;;5032575;28;20661;-40
2023/07/30 10:56:41;;;;;;;1.45;0.95;;;20.10;99.90;;;;;;5032374;28;20022;-43
2023/07/30 10:59:07;;;;;;;1.75;0.90;;;20.10;99.90;;;;;;5032348;28;20440;-41
2023/07/30 11:01:43;;;;;;;1.50;1.02;;;20.10;99.90;;;;;;5032426;28;20457;-42
2023/07/30 11:04:20;;;;;;;1.55;0.98;;;20.10;99.90;;;;;;5014676;28;20032;-43
2023/07/30 11:06:51;;;;;;;1.42;0.90;;;20.20;99.90;;;;;;5032222;28;20017;-41
2023/07/30 11:09:23;;;;;;;2.28;1.35;;;20.20;99.90;;;;;;5031829;28;20092;-42
2023/07/30 11:11:49;;;;;;;1.70;1.20;;;20.20;99.90;;;;;;5032181;28;20083;-43
2023/07/30 11:14:16;;;;;;;1.50;1.20;;;20.20;99.90;;;;;;5032087;28;20497;-42
2023/07/30 11:17:02;;;;;;;1.60;1.10;;;20.20;99.90;;;;;;5032057;28;20025;-41
2023/07/30 11:19:29;;;;;;;1.92;1.02;;;20.20;99.90;;;;;;5031252;28;20053;-40
2023/07/30 11:21:56;;;;;;;1.50;0.95;;;20.20;99.90;;;;;;5014171;28;20022;-41
2023/07/30 11:24:24;;;;;;;1.10;0.85;;;20.20;99.90;;;;;;5031899;28;20473;-41
2023/07/30 11:26:59;;;;;;;1.20;1.00;;;20.20;99.90;;;;;;5031924;28;20034;-43
2023/07/30 11:29:25;;;;;;;1.13;1.02;;;20.20;99.90;;;;;;5031660;28;20057;-44
2023/07/30 11:31:51;;;;;;;2.20;1.15;;;20.20;99.90;;;;;;5031881;28;20124;-44
2023/07/30 11:34:18;;;;;;;1.88;1.00;;;20.20;99.90;;;;;;5032195;28;20025;-39
2023/07/30 11:36:45;;;;;;;1.52;1.00;;;20.20;99.90;;;;;;5033176;28;20393;-41
2023/07/30 11:39:11;;;;;;;1.50;1.10;;;20.20;99.90;;;;;;5031415;28;20037;-41
2023/07/30 11:41:37;;;;;;;1.30;1.05;;;20.30;99.90;;;;;;5013850;28;20025;-41
2023/07/30 11:44:04;;;;;;;1.40;1.00;;;20.30;99.90;;;;;;5031088;28;20022;-41
2023/07/30 11:46:32;;;;;;;1.80;1.15;;;20.30;99.90;;;;;;5031492;28;20500;-41
2023/07/30 11:49:21;;;;;;;2.10;1.08;;;20.30;99.90;;;;;;5031225;28;20082;-40
2023/07/30 11:51:48;;;;;;;2.45;0.95;;;20.30;99.90;;;;;;5031531;28;20468;-39
2023/07/30 11:54:23;;;;;;;1.73;1.02;;;20.30;99.90;;;;;;5031515;28;20072;-41
2023/07/30 11:56:58;;;;;;;1.77;1.10;;;20.30;99.90;;;;;;5031447;28;20068;-42
2023/07/30 11:59:24;;;;;;;1.55;1.08;;;20.30;99.90;;;;;;5031260;28;20448;-39
2023/07/30 12:01:49;;;;;;;4.43;1.20;;;20.30;99.90;;;;;;5031332;28;20049;-40
2023/07/30 12:04:15;;;;;;;1.38;1.15;;;20.30;99.90;;;;;;5031319;28;20057;-42
2023/07/30 12:06:53;;;;;;;1.25;0.98;;;20.30;99.90;;;;;;5031346;28;20101;-40
2023/07/30 12:09:25;;;;;;;1.42;1.00;;;20.30;99.90;;;;;;5030994;28;20029;-42
2023/07/30 12:11:59;;;;;;;1.10;1.00;;;20.30;99.90;;;;;;5031196;28;20393;-40
2023/07/30 12:14:32;;;;;;;1.92;1.17;;;20.30;99.90;;;;;;5031265;28;20021;-45
2023/07/30 12:16:59;;;;;;;1.65;1.13;;;20.30;99.90;;;;;;5031174;28;20030;-41
2023/07/30 12:19:24;;;;;;;1.23;1.08;;;20.30;99.90;;;;;;5030726;28;20029;-42
2023/07/30 12:21:50;;;;;;;1.75;0.93;;;20.30;99.90;;;;;;5031197;28;20155;-44
2023/07/30 12:24:16;;;;;;;1.25;1.00;;;20.30;99.90;;;;;;5031003;28;20489;-41
2023/07/30 12:26:41;;;;;;;1.17;0.93;;;20.30;99.90;;;;;;5031126;28;20312;-41
2023/07/30 12:29:07;;;;;;;1.75;0.93;;;20.30;99.90;;;;;;5031387;28;20105;-39
2023/07/30 12:31:32;;;;;;;4.72;1.23;;;20.30;99.90;;;;;;5031387;28;20136;-41
2023/07/30 12:33:58;;;;;;;1.30;0.90;;;20.30;99.90;;;;;;5031019;28;20040;-40
2023/07/30 12:36:24;;;;;;;1.90;1.15;;;20.30;99.90;;;;;;5031121;28;20387;-41
2023/07/30 12:38:52;;;;;;;1.75;1.20;;;20.30;99.90;;;;;;5030600;28;20060;-44
2023/07/30 12:41:18;;;;;;;1.63;0.95;;;20.30;99.90;;;;;;5030882;28;20026;-41
2023/07/30 12:43:44;;;;;;;1.20;1.05;;;20.30;99.90;;;;;;5030981;28;20022;-41
2023/07/30 12:46:10;;;;;;;1.55;1.20;;;20.30;99.90;;;;;;5030940;28;20044;-40